Time,TemperatureF,DewpointF,PressureIn,WindDirection,WindDirectionDegrees,WindSpeedMPH,WindSpeedGustMPH,Humidity,HourlyPrecipIn,Conditions,Clouds,dailyrainin,SolarRadiationWatts/m^2,SoftwareType,DateUTC
2013-07-16 00:11:00,64.0,51.0,-100.00,SW,235,8.0,10.0,61,-99.99,,,-99.99,0.000000,,2013-07-16 06:11:00,
2013-07-16 00:21:00,64.0,51.0,-100.00,SW,235,8.0,10.0,61,-99.99,,,-99.99,0.000000,,2013-07-16 06:21:00,
2013-07-16 00:31:00,65.0,49.0,-100.00,WSW,256,6.0,8.0,55,-99.99,,,-99.99,0.000000,,2013-07-16 06:31:00,
2013-07-16 01:11:00,65.0,49.0,-100.00,SW,231,8.0,12.0,54,-99.99,,,-99.99,0.000000,,2013-07-16 07:11:00,
2013-07-16 01:43:00,65.0,48.0,-100.00,ENE,76,5.0,6.0,53,-99.99,,,-99.99,0.000000,,2013-07-16 07:43:00,
2013-07-16 02:11:00,65.0,48.0,-100.00,ENE,67,5.0,5.0,53,-99.99,,,-99.99,0.010000,,2013-07-16 08:11:00,
2013-07-16 02:22:00,66.0,48.0,-100.00,NE,53,7.0,8.0,51,-99.99,,,-99.99,0.000000,,2013-07-16 08:22:00,
2013-07-16 02:43:00,67.0,47.0,-100.00,ENE,71,6.0,6.0,48,-99.99,,,-99.99,0.000000,,2013-07-16 08:43:00,
2013-07-16 02:52:00,65.0,48.0,-100.00,ENE,67,6.0,7.0,53,-99.99,,,-99.99,0.000000,,2013-07-16 08:52:00,
2013-07-16 03:01:00,65.0,48.0,-100.00,ENE,67,6.0,7.0,53,-99.99,,,-99.99,0.000000,,2013-07-16 09:01:00,
2013-07-16 03:12:00,65.0,48.0,-100.00,ENE,57,6.0,7.0,52,-99.99,,,-99.99,0.000000,,2013-07-16 09:12:00,
2013-07-16 03:22:00,65.0,48.0,-100.00,ENE,57,6.0,7.0,52,-99.99,,,-99.99,0.000000,,2013-07-16 09:22:00,
2013-07-16 03:32:00,66.0,48.0,-100.00,ENE,61,6.0,9.0,52,-99.99,,,-99.99,0.000000,,2013-07-16 09:32:00,
2013-07-16 03:42:00,65.0,48.0,-100.00,East,79,6.0,10.0,53,-99.99,,,-99.99,0.000000,,2013-07-16 09:42:00,
2013-07-16 04:11:00,65.0,48.0,-100.00,ENE,69,7.0,9.0,55,-99.99,,,-99.99,0.000000,,2013-07-16 10:11:00,
2013-07-16 04:21:00,67.0,47.0,-100.00,NE,55,8.0,11.0,48,-99.99,,,-99.99,0.000000,,2013-07-16 10:21:00,
2013-07-16 04:31:00,67.0,47.0,-100.00,NE,52,10.0,12.0,49,-99.99,,,-99.99,0.000000,,2013-07-16 10:31:00,
2013-07-16 04:42:00,66.0,47.0,-100.00,ENE,58,9.0,11.0,50,-99.99,,,-99.99,0.000000,,2013-07-16 10:42:00,
2013-07-16 04:52:00,66.0,47.0,-100.00,ENE,58,9.0,11.0,50,-99.99,,,-99.99,0.000000,,2013-07-16 10:52:00,
2013-07-16 05:11:00,64.0,48.0,-100.00,East,87,6.0,7.0,55,-99.99,,,-99.99,0.000000,,2013-07-16 11:11:00,
2013-07-16 05:22:00,64.0,48.0,-100.00,ENE,71,7.0,8.0,57,-99.99,,,-99.99,0.000000,,2013-07-16 11:22:00,
2013-07-16 05:42:00,64.0,48.0,-100.00,ENE,67,7.0,8.0,57,-99.99,,,-99.99,0.010000,,2013-07-16 11:42:00,
2013-07-16 05:52:00,64.0,48.0,-100.00,ENE,70,8.0,9.0,57,-99.99,,,-99.99,0.010000,,2013-07-16 11:52:00,
2013-07-16 06:01:00,64.0,48.0,-100.00,ENE,70,8.0,9.0,57,-99.99,,,-99.99,0.010000,,2013-07-16 12:01:00,
2013-07-16 06:22:00,63.0,49.0,-100.00,ENE,62,7.0,7.0,59,-99.99,,,-99.99,0.380000,,2013-07-16 12:22:00,
2013-07-16 06:32:00,63.0,49.0,-100.00,ENE,62,7.0,7.0,59,-99.99,,,-99.99,0.380000,,2013-07-16 12:32:00,
2013-07-16 06:43:00,63.0,48.0,-100.00,ENE,69,8.0,8.0,58,-99.99,,,-99.99,3.370000,,2013-07-16 12:43:00,
2013-07-16 06:53:00,63.0,48.0,-100.00,ENE,69,8.0,8.0,58,-99.99,,,-99.99,3.370000,,2013-07-16 12:53:00,
2013-07-16 07:11:00,65.0,48.0,-100.00,NE,52,6.0,9.0,55,-99.99,,,-99.99,12.870000,,2013-07-16 13:11:00,
2013-07-16 07:21:00,65.0,48.0,-100.00,ENE,63,7.0,9.0,55,-99.99,,,-99.99,17.559999,,2013-07-16 13:21:00,
2013-07-16 07:32:00,64.0,48.0,-100.00,ENE,62,9.0,9.0,56,-99.99,,,-99.99,23.650000,,2013-07-16 13:32:00,
2013-07-16 07:42:00,64.0,49.0,-100.00,ENE,67,9.0,9.0,57,-99.99,,,-99.99,36.340000,,2013-07-16 13:42:00,
2013-07-16 07:52:00,64.0,49.0,-100.00,ENE,66,7.0,9.0,59,-99.99,,,-99.99,31.830000,,2013-07-16 13:52:00,
2013-07-16 08:01:00,63.0,49.0,-100.00,ENE,72,5.0,7.0,60,-99.99,,,-99.99,47.230000,,2013-07-16 14:01:00,
2013-07-16 08:21:00,65.0,48.0,-100.00,NE,50,8.0,9.0,53,-99.99,,,-99.99,91.900002,,2013-07-16 14:21:00,
2013-07-16 08:42:00,66.0,49.0,-100.00,NE,50,8.0,10.0,54,-99.99,,,-99.99,91.800003,,2013-07-16 14:42:00,
2013-07-16 08:52:00,66.0,49.0,-100.00,ENE,57,7.0,11.0,53,-99.99,,,-99.99,102.699997,,2013-07-16 14:52:00,
2013-07-16 09:11:00,67.0,49.0,-100.00,NE,50,8.0,10.0,51,-99.99,,,-99.99,183.100006,,2013-07-16 15:11:00,
2013-07-16 09:21:00,67.0,48.0,-100.00,NE,46,8.0,9.0,49,-99.99,,,-99.99,206.300003,,2013-07-16 15:21:00,
2013-07-16 09:43:00,68.0,49.0,-100.00,NE,44,7.0,10.0,49,-99.99,,,-99.99,240.100006,,2013-07-16 15:43:00,
2013-07-16 09:52:00,69.0,48.0,-100.00,ENE,59,7.0,9.0,46,-99.99,,,-99.99,298.399994,,2013-07-16 15:52:00,
2013-07-16 10:11:00,69.0,48.0,-100.00,NE,49,6.0,9.0,45,-99.99,,,-99.99,311.799988,,2013-07-16 16:11:00,
2013-07-16 10:21:00,69.0,48.0,-100.00,NE,49,6.0,9.0,45,-99.99,,,-99.99,311.799988,,2013-07-16 16:21:00,
2013-07-16 10:32:00,70.0,50.0,-100.00,ENE,61,7.0,9.0,49,-99.99,,,-99.99,303.200012,,2013-07-16 16:32:00,
2013-07-16 10:43:00,70.0,48.0,-100.00,ENE,74,6.0,10.0,46,-99.99,,,-99.99,422.500000,,2013-07-16 16:43:00,
2013-07-16 10:52:00,69.0,49.0,-100.00,NE,46,8.0,10.0,48,-99.99,,,-99.99,184.100006,,2013-07-16 16:52:00,
2013-07-16 11:02:00,69.0,49.0,-100.00,NE,46,8.0,10.0,48,-99.99,,,-99.99,184.100006,,2013-07-16 17:02:00,
2013-07-16 11:12:00,69.0,49.0,-100.00,ENE,67,8.0,10.0,49,-99.99,,,-99.99,177.699997,,2013-07-16 17:12:00,
2013-07-16 11:22:00,68.0,51.0,-100.00,NE,54,8.0,9.0,53,-99.99,,,-99.99,155.899994,,2013-07-16 17:22:00,
2013-07-16 11:43:00,70.0,49.0,-100.00,ENE,71,7.0,9.0,47,-99.99,,,-99.99,369.899994,,2013-07-16 17:43:00,
2013-07-16 11:53:00,71.0,48.0,-100.00,ENE,66,8.0,9.0,43,-99.99,,,-99.99,628.799988,,2013-07-16 17:53:00,
2013-07-16 12:01:00,72.0,49.0,-100.00,ENE,70,8.0,11.0,43,-99.99,,,-99.99,959.000000,,2013-07-16 18:01:00,
2013-07-16 12:11:00,74.0,48.0,-100.00,ENE,65,6.0,10.0,40,-99.99,,,-99.99,1029.000000,,2013-07-16 18:11:00,
2013-07-16 12:22:00,74.0,48.0,-100.00,ENE,65,6.0,10.0,40,-99.99,,,-99.99,1029.000000,,2013-07-16 18:22:00,
2013-07-16 12:43:00,78.0,49.0,-100.00,SSW,196,2.0,5.0,36,-99.99,,,-99.99,839.000000,,2013-07-16 18:43:00,
2013-07-16 12:52:00,78.0,52.0,-100.00,WSW,255,5.0,10.0,40,-99.99,,,-99.99,934.000000,,2013-07-16 18:52:00,
2013-07-16 13:01:00,76.0,51.0,-100.00,SSW,208,11.0,12.0,40,-99.99,,,-99.99,828.000000,,2013-07-16 19:01:00,
2013-07-16 13:11:00,77.0,53.0,-100.00,SW,214,10.0,15.0,42,-99.99,,,-99.99,850.000000,,2013-07-16 19:11:00,
2013-07-16 13:22:00,77.0,49.0,-100.00,SW,223,11.0,15.0,38,-99.99,,,-99.99,875.000000,,2013-07-16 19:22:00,
2013-07-16 13:32:00,76.0,46.0,-100.00,SW,235,10.0,16.0,34,-99.99,,,-99.99,686.900024,,2013-07-16 19:32:00,
2013-07-16 13:43:00,78.0,50.0,-100.00,WSW,240,10.0,14.0,37,-99.99,,,-99.99,1184.000000,,2013-07-16 19:43:00,
2013-07-16 13:52:00,78.0,50.0,-100.00,WSW,240,10.0,14.0,37,-99.99,,,-99.99,1184.000000,,2013-07-16 19:52:00,
2013-07-16 14:03:00,77.0,50.0,-100.00,SW,232,11.0,15.0,38,-99.99,,,-99.99,906.000000,,2013-07-16 20:03:00,
2013-07-16 14:11:00,77.0,49.0,-100.00,West,274,8.0,13.0,38,-99.99,,,-99.99,642.299988,,2013-07-16 20:11:00,
2013-07-16 14:22:00,77.0,49.0,-100.00,WSW,243,10.0,16.0,36,-99.99,,,-99.99,726.500000,,2013-07-16 20:22:00,
2013-07-16 14:32:00,77.0,49.0,-100.00,WSW,243,10.0,16.0,36,-99.99,,,-99.99,726.500000,,2013-07-16 20:32:00,
2013-07-16 14:43:00,78.0,47.0,-100.00,WSW,245,10.0,16.0,33,-99.99,,,-99.99,1074.000000,,2013-07-16 20:43:00,
2013-07-16 15:11:00,78.0,47.0,-100.00,West,262,7.0,16.0,33,-99.99,,,-99.99,968.000000,,2013-07-16 21:11:00,
2013-07-16 15:22:00,79.0,47.0,-100.00,SW,230,8.0,13.0,32,-99.99,,,-99.99,959.000000,,2013-07-16 21:22:00,
2013-07-16 15:32:00,79.0,47.0,-100.00,SW,230,8.0,13.0,32,-99.99,,,-99.99,959.000000,,2013-07-16 21:32:00,
2013-07-16 15:43:00,80.0,47.0,-100.00,WSW,252,7.0,14.0,32,-99.99,,,-99.99,963.000000,,2013-07-16 21:43:00,
2013-07-16 15:52:00,78.0,46.0,-100.00,SW,219,10.0,14.0,32,-99.99,,,-99.99,658.400024,,2013-07-16 21:52:00,
2013-07-16 16:11:00,78.0,46.0,-100.00,WSW,243,7.0,11.0,32,-99.99,,,-99.99,325.600006,,2013-07-16 22:11:00,
2013-07-16 17:11:00,74.0,59.0,-100.00,East,82,5.0,10.0,58,-99.99,,,-99.99,226.300003,,2013-07-16 23:11:00,
2013-07-16 17:22:00,73.0,57.0,-100.00,ENE,71,8.0,12.0,56,-99.99,,,-99.99,175.000000,,2013-07-16 23:22:00,
2013-07-16 17:32:00,73.0,61.0,-100.00,ENE,71,8.0,11.0,66,-99.99,,,-99.99,134.300003,,2013-07-16 23:32:00,
2013-07-16 18:01:00,62.0,55.0,-100.00,ENE,60,15.0,22.0,78,-99.99,,,-99.99,65.339996,,2013-07-17 00:01:00,
2013-07-16 18:11:00,61.0,55.0,-100.00,ENE,64,16.0,22.0,80,-99.99,,,-99.99,59.200001,,2013-07-17 00:11:00,
2013-07-16 18:33:00,61.0,55.0,-100.00,NE,55,13.0,18.0,80,-99.99,,,-99.99,76.980003,,2013-07-17 00:33:00,
2013-07-16 18:42:00,61.0,55.0,-100.00,NE,55,13.0,18.0,80,-99.99,,,-99.99,76.980003,,2013-07-17 00:42:00,
2013-07-16 18:52:00,61.0,53.0,-100.00,NE,54,16.0,21.0,76,-99.99,,,-99.99,31.540001,,2013-07-17 00:52:00,
2013-07-16 19:11:00,61.0,53.0,-100.00,NE,49,16.0,20.0,73,-99.99,,,-99.99,29.730000,,2013-07-17 01:11:00,
2013-07-16 19:22:00,63.0,53.0,-100.00,NE,54,15.0,19.0,69,-99.99,,,-99.99,45.990002,,2013-07-17 01:22:00,
2013-07-16 19:52:00,62.0,52.0,-100.00,ENE,64,9.0,14.0,69,-99.99,,,-99.99,5.860000,,2013-07-17 01:52:00,
2013-07-16 20:11:00,59.0,54.0,-100.00,SW,233,9.0,12.0,84,-99.99,,,-99.99,2.230000,,2013-07-17 02:11:00,
2013-07-16 20:32:00,58.0,54.0,-100.00,SW,231,8.0,15.0,85,-99.99,,,-99.99,1.380000,,2013-07-17 02:32:00,
2013-07-16 20:43:00,58.0,55.0,-100.00,WSW,243,10.0,12.0,87,-99.99,,,-99.99,0.970000,,2013-07-17 02:43:00,
2013-07-16 20:53:00,59.0,56.0,-100.00,West,259,12.0,16.0,91,-99.99,,,-99.99,0.520000,,2013-07-17 02:53:00,
2013-07-16 21:01:00,59.0,56.0,-100.00,WSW,240,15.0,17.0,88,-99.99,,,-99.99,0.200000,,2013-07-17 03:01:00,
2013-07-16 21:11:00,59.0,56.0,-100.00,WSW,240,15.0,17.0,88,-99.99,,,-99.99,0.200000,,2013-07-17 03:11:00,
2013-07-16 21:32:00,59.0,55.0,-100.00,WSW,254,16.0,20.0,87,-99.99,,,-99.99,0.200000,,2013-07-17 03:32:00,
2013-07-16 21:52:00,57.0,55.0,-100.00,SW,236,14.0,19.0,92,-99.99,,,-99.99,0.150000,,2013-07-17 03:52:00,
2013-07-16 22:01:00,57.0,55.0,-100.00,SW,236,12.0,18.0,93,-99.99,,,-99.99,0.100000,,2013-07-17 04:01:00,
2013-07-16 22:11:00,57.0,55.0,-100.00,WSW,248,12.0,16.0,93,-99.99,,,-99.99,0.070000,,2013-07-17 04:11:00,
2013-07-16 22:32:00,58.0,54.0,-100.00,West,265,9.0,18.0,88,-99.99,,,-99.99,0.050000,,2013-07-17 04:32:00,
2013-07-16 22:43:00,58.0,55.0,-100.00,NE,50,3.0,10.0,88,-99.99,,,-99.99,0.100000,,2013-07-17 04:43:00,
2013-07-16 22:53:00,58.0,55.0,-100.00,NE,50,3.0,10.0,88,-99.99,,,-99.99,0.100000,,2013-07-17 04:53:00,
2013-07-16 23:01:00,57.0,54.0,-100.00,SW,222,2.0,5.0,88,-99.99,,,-99.99,0.040000,,2013-07-17 05:01:00,
2013-07-16 23:32:00,59.0,54.0,-100.00,NNE,31,9.0,12.0,84,-99.99,,,-99.99,0.060000,,2013-07-17 05:32:00,
2013-07-16 23:52:00,59.0,54.0,-100.00,ENE,77,7.0,13.0,85,-99.99,,,-99.99,0.020000,,2013-07-17 05:52:00,